WBKKWBGR

Guest
Details From WBKK - Kota Kinabalu Intl
To WBGR - Miri
Flight Number -
Tags generated
Created
Modified
Stats Distance 157 nm / 291 km
Max Altitude 20,400 ft / 6,218 m
Waypoints 3
Social Downloads 1
Likes 0
Share VATSIM

Download

Looking for another format? Having issues loading an existing format? Contact us
Advertisement - Login to hide

Notes

Basic altitude profile: - Ascent Rate: 2500ft/min - Ascent Speed: 250kts - Cruise Altitude: 35000ft - Cruise Speed: 420kts - Descent Rate: 1500ft/min - Descent Speed: 250kts Options: - Use NATs: yes - Use PACOTS: yes - Use low airways: no - Use high airways: yes

Route

WBKK VLB WBGR

ID Type Via Altitude (ft/m) Position (lat/lon) Dist (leg/tot) Name
O WBKK APT - 0 / 0 5.93721 / 116.05118 - / 0 nm Kota Kinabalu Intl
VLB VOR - 20,400 / 6,218 5.29000 / 115.25172 61 / 61 nm LABUAN VOR-DME
O WBGR APT - 0 / 0 4.32207 / 113.98681 95 / 157 nm Miri

Altitude Profile

Advertisement - Login to hide

WBKK

Details ICAO WBKK (BKI)
Name Kota Kinabalu Intl
Region Brunei and Malaysia
Timezone Asia/Kuching (UTC+8.0)
Stats Elevation 18 ft / 5 m (AMSL)
Location 5.933930° 116.050000°
Runways 1
Magnetic Variation 0.465° W

METAR

WBKK 190730Z 33004KT 260V060 9999 FEW015 SCT140 BKN280 32/25 Q1006 NOSIG

Decode

TAF

TAF WBKK 190500Z 1906/2006 30005KT 9999 FEW015 BECMG 1912/1914 11005KT

Decode

Departure Runways

ID Width Length Bearing (true/mag) Surface Threshold Overrun Markings Lighting
02 148 ft / 45 m 12,504 ft / 3,811 m 22.79° / 23.25° ASPHALT 0 ft / 0 m 197 ft / 60 m PREC-APP CENTERLINE EDGE THRESHOLD ALSF-I
20 148 ft / 45 m 12,504 ft / 3,811 m 202.79° / 203.25° ASPHALT 919 ft / 280 m 0 ft / 0 m APP CENTERLINE EDGE THRESHOLD SSALR

WBGR

Details ICAO WBGR (MYY)
Name Miri
Region Brunei and Malaysia
Timezone Asia/Kuching (UTC+8.0)
Stats Elevation 59 ft / 18 m (AMSL)
Location 4.322070° 113.987000°
Runways 1
Magnetic Variation 0.132° W

METAR

WBGR 190700Z 31008KT 250V030 8000 TS FEW015CB SCT016 BKN300 32/26 Q1006

Decode

TAF

TAF WBGR 190500Z 1906/2006 VRB03KT 8000 SCT016 TEMPO 1906/1910 3000 TSRA FEW015CB

Decode

Destination Runways

ID Width Length Bearing (true/mag) Surface Threshold Overrun Markings Lighting
02 197 ft / 60 m 9,040 ft / 2,755 m 24.85° / 24.98° ASPHALT 0 ft / 0 m 200 ft / 61 m PREC-APP EDGE THRESHOLD SSALR REIL-OMNI
20 197 ft / 60 m 9,040 ft / 2,755 m 204.85° / 204.98° ASPHALT 0 ft / 0 m 200 ft / 61 m APP EDGE THRESHOLD SSALR REIL-OMNI

Approach Navaids

Runway Type Ident Frequency Range Bearing (true/mag) Slope Elevation
02 DME IMR 110.10 MHz 18 nm / 33 km - - 59 ft / 18 m (AMSL)
02 LOC-ILS IMR 110.10 MHz 18 nm / 33 km 25.02° / 25.15 ° - 59 ft / 18 m (AMSL)
02 GS IMR 110.10 MHz 10 nm / 19 km 25.69° / 25.82 ° 3.00° 56 ft / 17 m (AMSL)

Popular Alternatives